Time;durP1;ratioP1;P1;durP2;ratioP2;P2;SDS_P1;SDS_P2;PMS_P1;PMS_P2;Temp;Humidity;BMP_temperature;BMP_pressure;BME280_temperature;BME280_humidity;BME280_pressure;Samples;Min_cycle;Max_cycle;Signal;HPM_P1;HPM_P2
2023/12/18 00:01:49;;;;;;;1.10;0.90;;;;;;;20.98;33.15;102130.16;4471892;28;21224;-49
2023/12/18 00:04:03;;;;;;;0.85;0.85;;;;;;;20.98;33.16;102135.88;4471937;28;20050;-49
2023/12/18 00:06:13;;;;;;;0.90;0.73;;;;;;;20.98;33.56;102140.81;4471930;28;20042;-51
2023/12/18 00:08:23;;;;;;;0.80;0.80;;;;;;;20.98;33.23;102140.81;4471526;28;22530;-48
2023/12/18 00:10:34;;;;;;;0.80;0.80;;;;;;;20.97;33.63;102134.22;4471906;28;20034;-49
2023/12/18 00:12:44;;;;;;;0.88;0.88;;;;;;;20.97;33.28;102128.47;4471774;28;20054;-49
2023/12/18 00:14:54;;;;;;;1.00;0.85;;;;;;;20.96;32.72;102129.66;4471522;28;26339;-49
2023/12/18 00:17:05;;;;;;;0.90;0.90;;;;;;;20.96;32.99;102129.66;4472120;28;20092;-51
2023/12/18 00:19:15;;;;;;;1.10;1.00;;;;;;;20.95;32.87;102116.44;4471656;28;20030;-49
2023/12/18 00:21:26;;;;;;;1.20;1.00;;;;;;;20.96;33.48;102125.91;4472277;28;20038;-49
2023/12/18 00:23:36;;;;;;;1.08;0.98;;;;;;;20.96;33.26;102121.03;4471739;28;20059;-50
2023/12/18 00:25:47;;;;;;;0.80;0.80;;;;;;;20.96;33.23;102126.78;4471860;28;20411;-49
2023/12/18 00:27:57;;;;;;;0.77;0.77;;;;;;;20.96;32.77;102137.38;4471827;28;20476;-50
2023/12/18 00:30:08;;;;;;;1.00;0.95;;;;;;;20.95;32.62;102142.25;4471613;28;20488;-49
2023/12/18 00:32:19;;;;;;;1.00;0.90;;;;;;;20.94;32.45;102134.84;4471600;28;20122;-49
2023/12/18 00:34:29;;;;;;;0.88;0.75;;;;;;;20.94;32.58;102145.47;4471564;28;20219;-51
2023/12/18 00:36:40;;;;;;;1.10;0.90;;;;;;;20.93;32.18;102138.88;4471649;28;20502;-50
2023/12/18 00:38:50;;;;;;;0.90;0.80;;;;;;;20.93;32.10;102147.47;4471293;28;20558;-50
2023/12/18 00:41:00;;;;;;;1.00;0.90;;;;;;;20.94;32.10;102146.31;4471684;28;20050;-49
2023/12/18 00:43:12;;;;;;;1.00;0.80;;;;;;;20.93;32.30;102153.22;4471791;28;20035;-49
2023/12/18 00:45:22;;;;;;;0.95;0.85;;;;;;;20.93;32.20;102153.22;4471659;28;20038;-49
2023/12/18 00:47:33;;;;;;;0.85;0.80;;;;;;;20.94;32.34;102156.94;4471528;28;20571;-49
2023/12/18 00:49:43;;;;;;;1.02;0.93;;;;;;;20.93;32.14;102155.28;4471999;28;20528;-49
2023/12/18 00:51:55;;;;;;;0.93;0.80;;;;;;;20.93;32.18;102150.34;4471801;28;20117;-51
2023/12/18 00:54:05;;;;;;;0.93;0.90;;;;;;;20.92;32.20;102160.16;4471500;28;20089;-50
2023/12/18 00:56:16;;;;;;;0.80;0.80;;;;;;;20.92;32.49;102165.91;4471097;28;20053;-49
2023/12/18 00:58:26;;;;;;;0.95;0.90;;;;;;;20.91;32.43;102158.47;4472532;28;20893;-49
2023/12/18 01:00:36;;;;;;;1.00;0.90;;;;;;;20.92;32.65;102160.16;4470725;28;27217;-49
2023/12/18 01:02:47;;;;;;;0.90;0.80;;;;;;;20.91;33.12;102151.88;4471610;28;20058;-49
2023/12/18 01:04:57;;;;;;;1.05;0.90;;;;;;;20.91;33.39;102152.72;4471492;28;20403;-49
2023/12/18 01:07:07;;;;;;;0.98;0.88;;;;;;;20.91;33.48;102144.13;4470674;28;20757;-50
2023/12/18 01:09:18;;;;;;;1.20;0.90;;;;;;;20.91;33.64;102147.00;4470566;28;23532;-49
2023/12/18 01:11:28;;;;;;;1.02;0.93;;;;;;;20.89;33.38;102149.34;4471440;28;20480;-49
2023/12/18 01:13:39;;;;;;;1.08;0.98;;;;;;;20.89;33.62;102155.09;4470977;28;20563;-49
2023/12/18 01:15:49;;;;;;;0.80;0.80;;;;;;;20.89;33.57;102155.09;4471015;28;20508;-52
2023/12/18 01:18:00;;;;;;;1.08;0.90;;;;;;;20.89;33.14;102155.09;4470719;28;20404;-49
2023/12/18 01:20:10;;;;;;;1.10;1.00;;;;;;;20.89;33.50;102155.09;4470532;28;20063;-49
2023/12/18 01:22:21;;;;;;;1.30;1.00;;;;;;;20.89;32.86;102148.47;4470611;28;20506;-49
2023/12/18 01:24:31;;;;;;;1.33;0.90;;;;;;;20.88;32.82;102156.28;4470535;28;20434;-49
2023/12/18 01:26:41;;;;;;;1.17;0.80;;;;;;;20.87;32.85;102145.13;4470328;28;20114;-49
2023/12/18 01:28:52;;;;;;;1.10;0.90;;;;;;;20.89;33.01;102155.09;4470566;28;20624;-49
2023/12/18 01:31:02;;;;;;;1.02;0.93;;;;;;;20.88;32.87;102158.28;4471088;28;20047;-49
2023/12/18 01:33:13;;;;;;;1.08;0.90;;;;;;;20.87;32.53;102157.44;4471073;28;20042;-49
2023/12/18 01:35:23;;;;;;;1.60;1.00;;;;;;;20.87;32.45;102157.44;4460879;28;20488;-50
2023/12/18 01:37:33;;;;;;;1.00;0.90;;;;;;;20.87;32.56;102148.00;4470735;28;20035;-51
2023/12/18 01:39:44;;;;;;;0.88;0.88;;;;;;;20.87;32.89;102159.47;4470603;28;20046;-49
2023/12/18 01:41:54;;;;;;;1.35;1.05;;;;;;;20.87;32.89;102157.44;4470527;28;20141;-50
2023/12/18 01:44:05;;;;;;;1.20;1.10;;;;;;;20.87;32.36;102159.47;4469866;28;30074;-51
2023/12/18 01:46:21;;;;;;;1.10;0.80;;;;;;;20.86;32.24;102166.38;4469544;28;20046;-51
2023/12/18 01:48:33;;;;;;;1.33;1.00;;;;;;;20.86;32.14;102167.22;4469999;28;20880;-49
2023/12/18 01:50:43;;;;;;;1.13;0.90;;;;;;;20.85;31.94;102171.28;4470545;28;20337;-53
2023/12/18 01:52:54;;;;;;;1.13;0.93;;;;;;;20.86;32.08;102187.31;4470606;28;20123;-49
2023/12/18 01:55:05;;;;;;;1.30;0.93;;;;;;;20.86;31.70;102178.72;4470410;28;20053;-51
2023/12/18 01:57:19;;;;;;;0.95;0.90;;;;;;;20.85;31.58;102177.03;4470376;28;20605;-49
2023/12/18 01:59:32;;;;;;;0.90;0.80;;;;;;;20.85;31.69;102174.16;4470638;28;20118;-50
2023/12/18 02:01:42;;;;;;;1.10;1.00;;;;;;;20.85;31.61;102182.78;4470216;28;20931;-52
2023/12/18 02:03:55;;;;;;;1.27;1.10;;;;;;;20.85;31.78;102179.91;4470506;28;20100;-49
2023/12/18 02:06:06;;;;;;;1.20;0.90;;;;;;;20.85;32.07;102184.78;4470238;28;20093;-50
2023/12/18 02:08:16;;;;;;;1.02;0.90;;;;;;;20.84;31.50;102189.66;4470217;28;20837;-51
2023/12/18 02:10:27;;;;;;;1.33;1.20;;;;;;;20.83;31.74;102191.69;4468852;28;20046;-51
2023/12/18 02:12:37;;;;;;;1.00;0.90;;;;;;;20.83;31.89;102191.69;4470240;28;20043;-52
2023/12/18 02:14:48;;;;;;;1.48;1.20;;;;;;;20.84;31.87;102181.06;4470083;28;25550;-50
2023/12/18 02:16:58;;;;;;;1.77;1.00;;;;;;;20.83;31.47;102183.06;4470496;28;20078;-50
2023/12/18 02:19:29;;;;;;;1.10;0.95;;;;;;;20.83;31.61;102190.84;4469606;28;20389;-53
2023/12/18 02:21:39;;;;;;;1.75;1.00;;;;;;;20.83;31.59;102184.25;4470313;28;20133;-49
2023/12/18 02:23:50;;;;;;;1.45;0.90;;;;;;;20.82;31.95;102183.41;4469897;28;20488;-49
2023/12/18 02:26:04;;;;;;;1.10;1.00;;;;;;;20.83;31.29;102185.13;4469864;28;20073;-49
2023/12/18 02:28:16;;;;;;;1.02;0.90;;;;;;;20.82;31.69;102185.44;4484519;28;20045;-49
2023/12/18 02:30:26;;;;;;;0.93;0.80;;;;;;;20.81;31.36;102178.84;4469544;28;20043;-51
2023/12/18 02:32:38;;;;;;;1.27;1.17;;;;;;;20.82;31.28;102171.91;4469578;28;20035;-50
2023/12/18 02:34:49;;;;;;;1.30;1.10;;;;;;;20.80;31.42;102155.03;4469785;28;20073;-49
2023/12/18 02:36:59;;;;;;;1.20;1.10;;;;;;;20.81;31.75;102161.63;4470316;28;20049;-48
2023/12/18 02:39:09;;;;;;;1.40;1.10;;;;;;;20.80;31.73;102163.66;4469321;28;26348;-49
2023/12/18 02:41:20;;;;;;;1.17;1.05;;;;;;;20.82;31.75;102171.09;4469921;28;20046;-53
2023/12/18 02:43:30;;;;;;;1.20;1.10;;;;;;;20.82;31.29;102171.91;4469849;28;20384;-49
2023/12/18 02:45:41;;;;;;;1.55;0.98;;;;;;;20.82;31.45;102169.06;4469488;28;20121;-49
2023/12/18 02:47:51;;;;;;;1.38;1.10;;;;;;;20.79;31.52;102161.97;4469325;28;23890;-51
2023/12/18 02:50:02;;;;;;;1.38;1.10;;;;;;;20.81;30.97;102164.50;4469346;28;20143;-50
2023/12/18 02:52:12;;;;;;;1.50;1.08;;;;;;;20.80;31.16;102174.31;4469751;28;20039;-49
2023/12/18 02:54:23;;;;;;;1.70;1.13;;;;;;;20.80;31.20;102168.56;4469663;28;20039;-49
2023/12/18 02:56:33;;;;;;;1.27;0.95;;;;;;;20.80;30.63;102162.81;4469462;28;20035;-50
2023/12/18 02:58:43;;;;;;;1.23;1.13;;;;;;;20.81;31.03;102164.50;4469237;28;20051;-49
2023/12/18 03:00:54;;;;;;;0.93;0.93;;;;;;;20.78;30.72;102162.28;4469763;28;20023;-50
2023/12/18 03:03:04;;;;;;;1.52;1.10;;;;;;;20.78;30.97;102166.03;4469634;28;20453;-49
2023/12/18 03:05:15;;;;;;;1.50;0.98;;;;;;;20.78;30.66;102157.41;4469961;28;20039;-49
2023/12/18 03:07:25;;;;;;;1.63;1.10;;;;;;;20.79;30.66;102163.97;4469446;28;20122;-49
2023/12/18 03:09:36;;;;;;;2.63;1.48;;;;;;;20.77;30.79;102169.22;4469950;28;20039;-52
2023/12/18 03:11:47;;;;;;;1.40;1.30;;;;;;;20.78;30.72;102166.03;4469332;28;20117;-49
2023/12/18 03:13:57;;;;;;;1.60;1.10;;;;;;;20.77;30.33;102170.06;4469819;28;20118;-50
2023/12/18 03:16:08;;;;;;;1.45;1.20;;;;;;;20.77;30.58;102172.91;4469624;28;20503;-50
2023/12/18 03:18:18;;;;;;;1.33;1.13;;;;;;;20.76;30.20;102159.75;4469390;28;20066;-49
2023/12/18 03:20:28;;;;;;;1.80;1.10;;;;;;;20.76;30.66;102173.25;4469485;28;20058;-49
2023/12/18 03:22:39;;;;;;;2.33;1.45;;;;;;;20.76;30.59;102179.84;4469754;28;20042;-49
2023/12/18 03:24:49;;;;;;;2.10;1.20;;;;;;;20.76;30.43;102179.00;4469473;28;20031;-51
2023/12/18 03:26:59;;;;;;;1.52;1.20;;;;;;;20.76;29.87;102173.25;4469609;28;20058;-50
2023/12/18 03:29:10;;;;;;;2.08;1.30;;;;;;;20.76;30.28;102161.78;4469120;28;20091;-49
2023/12/18 03:31:20;;;;;;;1.63;1.13;;;;;;;20.76;30.20;102153.16;4469685;28;20042;-49
2023/12/18 03:37:15;;;;;;;1.42;1.33;;;;;;;20.75;29.88;102145.75;4468046;28;20882;-48
2023/12/18 03:39:25;;;;;;;1.48;1.30;;;;;;;20.74;29.79;102133.41;4469048;28;21398;-49
2023/12/18 03:41:36;;;;;;;1.60;1.30;;;;;;;20.74;29.69;102127.69;4468585;28;30317;-50
2023/12/18 03:44:05;;;;;;;2.72;1.40;;;;;;;20.74;29.98;102133.41;4469469;28;20559;-49
2023/12/18 03:46:15;;;;;;;2.42;1.65;;;;;;;20.74;29.71;102123.94;4469886;28;25766;-48
2023/12/18 03:48:26;;;;;;;2.00;1.50;;;;;;;20.72;29.89;102132.06;4472630;28;20389;-50
2023/12/18 03:53:23;;;;;;;2.33;1.58;;;;;;;20.73;29.84;102130.88;4472401;28;20034;-51
2023/12/18 03:55:38;;;;;;;2.00;1.30;;;;;;;20.74;29.37;102129.69;4472204;28;20043;-49
2023/12/18 03:57:48;;;;;;;2.47;1.52;;;;;;;20.73;29.60;102139.47;4471876;28;20242;-50
2023/12/18 03:59:58;;;;;;;2.55;1.60;;;;;;;20.72;29.17;102132.06;4471843;28;20682;-50
2023/12/18 04:02:15;;;;;;;2.22;1.50;;;;;;;20.70;29.33;102126.66;4472122;28;20054;-49
2023/12/18 04:04:25;;;;;;;1.80;1.20;;;;;;;20.72;29.29;102124.28;4472301;28;20039;-49
2023/12/18 04:06:36;;;;;;;2.03;1.50;;;;;;;20.72;29.30;102126.31;4472290;28;20055;-50
2023/12/18 04:08:46;;;;;;;1.90;1.40;;;;;;;20.72;29.19;102132.06;4472209;28;20345;-49
2023/12/18 04:11:16;;;;;;;2.13;1.50;;;;;;;20.71;29.17;102133.22;4472207;28;20623;-50
2023/12/18 04:13:26;;;;;;;2.67;1.40;;;;;;;20.71;29.30;102133.22;4472006;28;20090;-49
2023/12/18 04:15:37;;;;;;;1.92;1.50;;;;;;;20.71;29.28;102139.81;4472219;28;20562;-50
2023/12/18 04:17:47;;;;;;;2.38;1.50;;;;;;;20.72;28.88;102143.53;4471923;28;20027;-49
2023/12/18 04:19:57;;;;;;;2.08;1.40;;;;;;;20.71;28.68;102138.97;4471460;28;27319;-48
2023/12/18 04:22:08;;;;;;;1.73;1.50;;;;;;;20.71;28.88;102134.06;4472145;28;20049;-49
2023/12/18 04:24:18;;;;;;;1.85;1.40;;;;;;;20.71;28.52;102130.34;4471440;28;20522;-50
2023/12/18 04:27:15;;;;;;;2.17;1.60;;;;;;;20.72;28.92;102132.06;4471709;28;20433;-49
2023/12/18 04:29:26;;;;;;;1.70;1.60;;;;;;;20.70;29.20;102138.13;4472328;28;20149;-49
2023/12/18 04:32:14;;;;;;;1.88;1.42;;;;;;;20.71;28.74;102131.22;4472492;28;20038;-49
2023/12/18 04:34:25;;;;;;;1.63;1.50;;;;;;;20.70;28.75;102131.53;4471575;28;20094;-48
2023/12/18 04:36:39;;;;;;;1.98;1.60;;;;;;;20.70;29.23;102134.41;4471581;28;20050;-49
2023/12/18 04:38:49;;;;;;;2.70;1.80;;;;;;;20.69;28.75;102136.41;4471232;28;20042;-48
2023/12/18 04:41:00;;;;;;;3.33;2.00;;;;;;;20.70;28.83;102134.41;4471745;28;20031;-51
2023/12/18 04:43:10;;;;;;;2.17;1.80;;;;;;;20.70;29.10;102134.41;4471163;28;20050;-49
2023/12/18 04:45:21;;;;;;;2.92;1.70;;;;;;;20.69;28.91;102132.72;4471815;28;20431;-49
2023/12/18 04:47:31;;;;;;;2.50;1.77;;;;;;;20.69;28.65;102138.47;4471533;28;20053;-50
2023/12/18 04:49:41;;;;;;;1.95;1.63;;;;;;;20.70;29.34;102128.66;4471317;28;20510;-49
2023/12/18 04:51:52;;;;;;;2.13;1.67;;;;;;;20.69;28.91;102122.06;4471556;28;20074;-50
2023/12/18 04:54:02;;;;;;;2.35;1.60;;;;;;;20.69;29.03;102121.25;4471560;28;20396;-51
2023/12/18 04:56:13;;;;;;;1.90;1.50;;;;;;;20.69;29.09;102124.13;4471537;28;20106;-49
2023/12/18 04:58:23;;;;;;;2.13;1.60;;;;;;;20.69;29.08;102119.22;4470009;28;20027;-50
2023/12/18 05:00:33;;;;;;;1.63;1.52;;;;;;;20.69;29.03;102127.00;4471289;28;20047;-49
2023/12/18 05:02:44;;;;;;;1.70;1.60;;;;;;;20.69;28.69;102127.00;4471315;28;20077;-49
2023/12/18 05:04:54;;;;;;;2.25;1.80;;;;;;;20.68;28.70;102125.28;4470920;28;20082;-50
2023/12/18 05:07:07;;;;;;;2.22;1.70;;;;;;;20.67;28.77;102129.34;4471210;28;20050;-50
2023/12/18 05:09:18;;;;;;;2.10;1.55;;;;;;;20.69;28.64;102135.59;4470762;28;20791;-49
2023/12/18 05:11:28;;;;;;;2.50;1.88;;;;;;;20.68;28.74;102140.47;4486127;28;20026;-49
2023/12/18 05:13:39;;;;;;;2.45;1.90;;;;;;;20.68;28.42;102139.63;4471253;28;20070;-49
2023/12/18 05:15:51;;;;;;;2.38;1.88;;;;;;;20.68;28.77;102136.75;4471322;28;20346;-50
2023/12/18 05:18:01;;;;;;;2.40;1.70;;;;;;;20.67;28.75;102135.94;4471020;28;20035;-49
2023/12/18 05:20:12;;;;;;;2.70;1.80;;;;;;;20.67;28.43;102137.94;4471255;28;20069;-49
2023/12/18 05:22:23;;;;;;;2.60;2.10;;;;;;;20.68;28.36;102148.22;4471269;28;20043;-48
2023/12/18 05:24:33;;;;;;;2.45;1.80;;;;;;;20.67;28.29;102144.53;4459678;28;20027;-49
2023/12/18 05:26:44;;;;;;;2.90;1.80;;;;;;;20.67;28.82;102140.81;4485989;28;20118;-49
2023/12/18 05:28:54;;;;;;;2.85;2.10;;;;;;;20.67;28.89;102140.81;4461298;28;20043;-49
2023/12/18 05:31:08;;;;;;;3.08;2.10;;;;;;;20.67;28.72;102146.56;4469908;28;20031;-49
2023/12/18 05:33:19;;;;;;;3.13;2.50;;;;;;;20.66;28.38;102139.13;4470699;28;20045;-49
2023/12/18 05:35:30;;;;;;;2.95;2.08;;;;;;;20.66;28.88;102144.88;4471222;28;20154;-48
2023/12/18 05:37:40;;;;;;;3.10;2.30;;;;;;;20.67;28.61;102143.69;4469227;28;20026;-49
2023/12/18 05:39:51;;;;;;;3.47;2.80;;;;;;;20.65;28.40;102143.16;4470837;28;20047;-48
2023/12/18 05:42:01;;;;;;;4.07;2.75;;;;;;;20.65;28.40;102152.63;4470713;28;20039;-51
2023/12/18 05:44:12;;;;;;;3.17;2.70;;;;;;;20.65;28.43;102154.63;4470494;28;20043;-49
2023/12/18 05:46:22;;;;;;;3.67;2.55;;;;;;;20.66;28.74;102153.47;4470912;28;20042;-49
2023/12/18 05:48:32;;;;;;;3.78;2.67;;;;;;;20.64;28.55;102152.97;4470967;28;20043;-49
2023/12/18 05:50:43;;;;;;;4.15;2.70;;;;;;;20.65;28.43;102141.16;4470716;28;20035;-49
2023/12/18 05:52:53;;;;;;;3.42;2.75;;;;;;;20.64;28.42;102133.69;4485145;28;20034;-49
2023/12/18 05:55:04;;;;;;;4.25;2.83;;;;;;;20.63;28.85;102134.03;4470382;28;20385;-50
2023/12/18 05:57:16;;;;;;;3.58;2.78;;;;;;;20.64;28.28;102135.75;4470382;28;20043;-49
2023/12/18 05:59:27;;;;;;;3.72;3.17;;;;;;;20.64;28.29;102144.34;4470550;28;20039;-49
2023/12/18 06:01:37;;;;;;;4.20;3.05;;;;;;;20.62;28.48;102132.34;4470894;28;20050;-49
2023/12/18 06:03:47;;;;;;;3.88;2.70;;;;;;;20.63;28.32;102129.16;4470289;28;20054;-49
2023/12/18 06:05:58;;;;;;;3.97;2.60;;;;;;;20.62;28.63;102127.47;4470256;28;20102;-49
2023/12/18 06:08:08;;;;;;;3.90;2.78;;;;;;;20.63;28.59;102129.16;4470150;28;20045;-49
2023/12/18 06:10:19;;;;;;;2.92;2.50;;;;;;;20.62;28.70;102124.59;4469820;28;20177;-48
2023/12/18 06:12:29;;;;;;;3.50;2.95;;;;;;;20.63;28.61;102134.03;4469930;28;20042;-48
2023/12/18 06:14:40;;;;;;;3.28;2.47;;;;;;;20.61;28.38;102140.09;4469850;28;20050;-49
2023/12/18 06:16:50;;;;;;;2.92;2.42;;;;;;;20.62;28.48;102149.56;4470132;28;20046;-48
2023/12/18 06:19:01;;;;;;;4.25;2.58;;;;;;;20.63;28.58;102146.34;4469730;28;20038;-49
2023/12/18 06:21:11;;;;;;;4.13;2.40;;;;;;;20.62;28.60;102147.56;4470457;28;20110;-49
2023/12/18 06:23:21;;;;;;;3.70;2.30;;;;;;;20.61;28.56;102147.88;4468298;28;20500;-49
2023/12/18 06:25:32;;;;;;;2.97;2.50;;;;;;;20.62;28.13;102149.56;4469683;28;20092;-49
2023/12/18 06:27:45;;;;;;;3.75;2.53;;;;;;;20.62;28.05;102150.41;4470078;28;20039;-49
2023/12/18 06:29:55;;;;;;;3.10;2.35;;;;;;;20.62;28.24;102138.09;4470099;28;20034;-52
2023/12/18 06:32:06;;;;;;;2.97;2.60;;;;;;;20.62;28.38;102144.69;4469713;28;20039;-48
2023/12/18 06:34:17;;;;;;;3.08;2.38;;;;;;;20.63;28.52;102157.84;4470045;28;20043;-50
2023/12/18 06:36:28;;;;;;;3.53;2.50;;;;;;;20.63;28.54;102166.44;4485021;28;20042;-50
2023/12/18 06:38:38;;;;;;;2.88;2.38;;;;;;;20.62;28.12;102173.38;4469783;28;20071;-49
2023/12/18 06:40:48;;;;;;;2.97;2.22;;;;;;;20.62;28.32;102169.63;4470028;28;20093;-49
2023/12/18 06:42:59;;;;;;;3.13;2.28;;;;;;;20.64;28.00;102175.91;4470181;28;20058;-48
2023/12/18 06:45:09;;;;;;;3.70;2.60;;;;;;;20.61;28.24;102170.84;4469391;28;20475;-48
2023/12/18 06:47:20;;;;;;;3.65;2.13;;;;;;;20.62;28.38;102172.50;4469890;28;20065;-48
2023/12/18 06:49:30;;;;;;;4.00;2.78;;;;;;;20.63;27.96;102177.91;4470103;28;20142;-51
2023/12/18 06:51:41;;;;;;;3.00;2.30;;;;;;;20.61;28.04;102171.66;4469844;28;20089;-50
2023/12/18 06:53:51;;;;;;;3.58;2.45;;;;;;;20.62;28.04;102173.38;4469556;28;20504;-50
2023/12/18 06:56:03;;;;;;;3.85;2.30;;;;;;;20.61;28.31;102170.84;4469866;28;20073;-49
2023/12/18 06:58:13;;;;;;;3.92;2.55;;;;;;;20.63;28.25;102171.31;4469418;28;20046;-50
2023/12/18 07:00:25;;;;;;;3.25;2.50;;;;;;;20.60;28.24;102164.22;4469675;28;20030;-50
2023/12/18 07:02:35;;;;;;;4.35;2.70;;;;;;;20.62;28.07;102161.03;4469648;28;20216;-49
2023/12/18 07:04:46;;;;;;;3.58;2.70;;;;;;;20.61;28.34;102153.63;4469988;28;20133;-54
2023/12/18 07:06:56;;;;;;;3.20;2.65;;;;;;;20.62;28.40;102161.91;4469424;28;20045;-54
2023/12/18 07:09:07;;;;;;;2.97;2.50;;;;;;;20.62;28.16;102156.16;4469586;28;20043;-52
2023/12/18 07:11:17;;;;;;;3.30;2.50;;;;;;;20.62;28.16;102164.75;4469546;28;20125;-49
2023/12/18 07:13:27;;;;;;;3.72;2.67;;;;;;;20.63;28.06;102169.31;4469030;28;20559;-49
2023/12/18 07:15:38;;;;;;;3.38;2.33;;;;;;;20.64;28.20;102170.16;4469338;28;20568;-53
2023/12/18 07:17:48;;;;;;;2.85;2.55;;;;;;;20.64;28.68;102171.00;4469357;28;20050;-49
2023/12/18 07:19:59;;;;;;;3.20;2.40;;;;;;;20.64;28.21;102161.56;4469520;28;20088;-51
2023/12/18 07:22:09;;;;;;;4.03;2.55;;;;;;;20.65;28.53;102157.50;4471813;28;20067;-51
2023/12/18 07:24:19;;;;;;;3.55;2.30;;;;;;;20.64;28.32;102159.50;4472630;28;20051;-50
2023/12/18 07:26:30;;;;;;;3.80;2.60;;;;;;;20.65;28.46;102154.63;4473139;28;20031;-49
2023/12/18 07:28:41;;;;;;;3.20;2.63;;;;;;;20.63;28.37;102151.25;4487636;28;20054;-49
2023/12/18 07:30:51;;;;;;;3.78;2.63;;;;;;;20.65;28.35;102158.38;4472962;28;20070;-49
2023/12/18 07:33:02;;;;;;;3.35;2.50;;;;;;;20.66;28.60;102159.22;4472434;28;20073;-48
2023/12/18 07:35:12;;;;;;;3.00;2.40;;;;;;;20.64;28.54;102141.47;4472664;28;20045;-51
2023/12/18 07:37:22;;;;;;;3.75;2.70;;;;;;;20.66;28.50;102148.56;4462472;28;20102;-49
2023/12/18 07:39:33;;;;;;;3.08;2.70;;;;;;;20.67;28.27;102149.41;4472810;28;20035;-50
2023/12/18 07:41:43;;;;;;;3.78;2.50;;;;;;;20.66;28.52;102145.69;4472708;28;20081;-49
2023/12/18 07:43:54;;;;;;;4.00;2.50;;;;;;;20.67;28.48;102144.53;4464687;28;21094;-49
2023/12/18 07:49:23;;;;;;;4.03;2.72;;;;;;;20.66;28.65;102160.03;4472031;28;20602;-49
2023/12/18 07:51:34;;;;;;;3.95;2.90;;;;;;;20.66;28.65;102164.97;4472398;28;20051;-51
2023/12/18 07:54:15;;;;;;;3.67;2.80;;;;;;;20.67;28.54;102158.88;4472799;28;20058;-53
2023/12/18 07:56:26;;;;;;;3.88;2.50;;;;;;;20.66;28.06;102170.69;4472316;28;20059;-49
2023/12/18 07:58:36;;;;;;;3.38;2.70;;;;;;;20.66;28.12;102173.56;4472198;28;20497;-48
2023/12/18 08:00:47;;;;;;;3.35;2.60;;;;;;;20.65;28.44;102166.97;4472582;28;20027;-48
2023/12/18 08:03:16;;;;;;;3.10;2.65;;;;;;;20.67;28.43;102175.25;4472457;28;20074;-48
2023/12/18 08:05:26;;;;;;;3.38;2.45;;;;;;;20.66;28.68;102173.56;4472208;28;20070;-48
2023/12/18 08:07:37;;;;;;;3.05;2.40;;;;;;;20.67;28.73;102158.03;4471697;28;20549;-49
2023/12/18 08:09:47;;;;;;;2.75;2.10;;;;;;;20.68;28.64;102165.44;4472178;28;20046;-50
2023/12/18 08:11:58;;;;;;;4.35;2.40;;;;;;;20.68;28.62;102171.19;4472027;28;20038;-51
2023/12/18 08:14:09;;;;;;;3.95;2.70;;;;;;;20.69;28.41;102164.28;4472194;28;20034;-49
2023/12/18 08:16:19;;;;;;;2.55;2.10;;;;;;;20.68;28.70;102171.19;4472141;28;20042;-49
2023/12/18 08:18:30;;;;;;;2.40;2.15;;;;;;;20.70;28.37;102160.22;4471560;28;20084;-49
2023/12/18 08:20:40;;;;;;;2.90;2.10;;;;;;;20.70;28.75;102160.22;4472068;28;20023;-49
2023/12/18 08:22:51;;;;;;;2.53;2.10;;;;;;;20.70;28.73;102160.22;4471815;28;20035;-49
2023/12/18 08:25:02;;;;;;;3.05;2.40;;;;;;;20.70;28.66;102151.63;4472063;28;20081;-51
2023/12/18 08:27:16;;;;;;;3.10;2.22;;;;;;;20.71;28.67;102164.78;4471589;28;20033;-49
2023/12/18 08:30:13;;;;;;;2.97;2.20;;;;;;;20.72;28.98;102155.03;4471031;28;20035;-50
2023/12/18 08:32:23;;;;;;;2.03;1.83;;;;;;;20.72;28.95;102166.50;4471095;28;20043;-49
2023/12/18 08:34:34;;;;;;;3.33;1.95;;;;;;;20.72;28.89;102163.63;4471502;28;20026;-49
2023/12/18 08:36:45;;;;;;;2.65;2.10;;;;;;;20.72;28.51;102152.16;4471741;28;20042;-49
2023/12/18 08:38:55;;;;;;;2.80;2.10;;;;;;;20.71;28.80;102144.69;4471456;28;20097;-49
2023/12/18 08:41:06;;;;;;;2.30;2.00;;;;;;;20.72;28.75;102144.38;4471772;28;20035;-50
2023/12/18 08:43:16;;;;;;;2.83;2.28;;;;;;;20.72;28.96;102144.38;4471267;28;26507;-48
2023/12/18 08:48:15;;;;;;;2.30;1.92;;;;;;;20.72;29.04;102160.75;4471318;28;20043;-49
2023/12/18 08:51:14;;;;;;;2.97;2.10;;;;;;;20.72;28.78;102155.84;4471409;28;20086;-48
2023/12/18 08:53:24;;;;;;;3.47;2.40;;;;;;;20.73;28.75;102166.16;4471152;28;20594;-49
2023/12/18 08:55:38;;;;;;;3.38;2.40;;;;;;;20.73;28.88;102150.97;4471295;28;20034;-48
2023/12/18 08:57:49;;;;;;;3.00;2.30;;;;;;;20.74;28.93;102149.78;4471062;28;20042;-49
2023/12/18 09:00:15;;;;;;;2.85;2.40;;;;;;;20.73;29.10;102146.06;4471521;28;20047;-49
2023/12/18 09:02:25;;;;;;;3.00;2.35;;;;;;;20.74;29.35;102149.78;4471490;28;20035;-49
2023/12/18 09:05:13;;;;;;;2.90;2.20;;;;;;;20.75;29.25;102148.63;4470992;28;20031;-50
2023/12/18 09:07:24;;;;;;;2.40;2.20;;;;;;;20.75;29.11;102149.47;4470588;28;20059;-49
2023/12/18 09:09:36;;;;;;;3.22;2.45;;;;;;;20.75;29.27;102151.47;4471130;28;20047;-51
2023/12/18 09:11:46;;;;;;;2.60;2.20;;;;;;;20.74;29.56;102144.88;4471389;28;20034;-50
2023/12/18 09:13:57;;;;;;;3.00;2.20;;;;;;;20.75;29.66;102142.88;4470872;28;20524;-50
2023/12/18 09:16:07;;;;;;;3.03;2.20;;;;;;;20.75;29.80;102142.88;4469976;28;20137;-50
2023/12/18 09:18:18;;;;;;;2.53;2.30;;;;;;;20.75;29.79;102134.28;4470824;28;20416;-49
2023/12/18 09:20:28;;;;;;;2.85;2.10;;;;;;;20.76;29.89;102138.81;4471066;28;20045;-49
2023/12/18 09:22:38;;;;;;;2.70;2.33;;;;;;;20.77;29.41;102135.63;4471029;28;20039;-49
2023/12/18 09:24:49;;;;;;;2.47;1.98;;;;;;;20.78;30.11;102133.59;4470547;28;20038;-49
2023/12/18 09:27:00;;;;;;;3.05;2.40;;;;;;;20.78;29.61;102131.59;4470923;28;20042;-54
2023/12/18 09:29:10;;;;;;;3.55;2.50;;;;;;;20.81;29.60;102135.81;4470716;28;20121;-51
2023/12/18 09:31:21;;;;;;;2.72;2.25;;;;;;;20.81;29.77;102130.06;4470778;28;20146;-52
2023/12/18 09:33:33;;;;;;;3.20;2.42;;;;;;;20.82;29.64;102131.75;4470977;28;20039;-50
2023/12/18 09:35:43;;;;;;;2.78;2.40;;;;;;;20.81;29.42;102135.81;4470906;28;20031;-51
2023/12/18 09:37:54;;;;;;;2.72;2.35;;;;;;;20.81;29.92;102135.81;4470517;28;20043;-49
2023/12/18 09:40:07;;;;;;;3.20;2.15;;;;;;;20.82;29.18;102134.63;4469927;28;20489;-53
2023/12/18 09:42:17;;;;;;;2.70;2.15;;;;;;;20.82;29.54;102128.88;4470470;28;20046;-50
2023/12/18 09:44:31;;;;;;;2.50;2.30;;;;;;;20.82;29.80;102122.31;4469404;28;20046;-50
2023/12/18 09:46:42;;;;;;;2.83;2.22;;;;;;;20.83;29.83;102122.81;4470499;28;20035;-51
2023/12/18 09:48:53;;;;;;;3.42;2.40;;;;;;;20.83;29.60;102116.25;4470278;28;20043;-49
2023/12/18 09:51:07;;;;;;;3.75;2.47;;;;;;;20.83;29.63;102111.31;4470354;28;20149;-50
2023/12/18 09:53:20;;;;;;;2.40;1.90;;;;;;;20.82;29.84;102103.03;4470106;28;20041;-49
2023/12/18 09:55:31;;;;;;;2.70;2.20;;;;;;;20.84;29.92;102115.03;4470069;28;20046;-49
2023/12/18 09:57:44;;;;;;;2.13;1.92;;;;;;;20.85;30.26;102108.16;4468908;28;20050;-49
2023/12/18 09:59:54;;;;;;;2.35;2.13;;;;;;;20.84;30.10;102103.56;4469768;28;20043;-49
2023/12/18 10:02:14;;;;;;;3.33;2.38;;;;;;;20.86;30.25;102112.69;4470096;28;20507;-50
2023/12/18 10:04:24;;;;;;;3.38;2.40;;;;;;;20.87;30.25;102111.50;4469945;28;20027;-50
2023/12/18 10:06:35;;;;;;;2.65;2.22;;;;;;;20.87;29.99;102100.03;4470257;28;20536;-49
2023/12/18 10:08:50;;;;;;;2.80;2.20;;;;;;;20.88;30.09;102100.88;4467782;28;20042;-53
2023/12/18 10:11:01;;;;;;;3.10;2.28;;;;;;;20.87;29.89;102099.22;4468562;28;20085;-52
2023/12/18 10:13:13;;;;;;;2.90;2.38;;;;;;;20.88;30.11;102095.16;4469940;28;20046;-49
2023/12/18 10:15:23;;;;;;;3.20;2.15;;;;;;;20.88;30.21;102096.00;4469860;28;20046;-49
2023/12/18 10:17:34;;;;;;;3.08;2.30;;;;;;;20.88;30.04;102090.25;4469684;28;20035;-49
2023/12/18 10:19:44;;;;;;;2.63;2.30;;;;;;;20.87;30.29;102087.72;4469892;28;20038;-50
2023/12/18 10:21:54;;;;;;;2.58;2.10;;;;;;;20.87;29.90;102100.03;4460310;28;20058;-49
2023/12/18 10:24:07;;;;;;;2.55;2.20;;;;;;;20.88;30.01;102090.25;4469715;28;20133;-49
2023/12/18 10:26:18;;;;;;;2.97;2.58;;;;;;;20.89;30.12;102080.47;4469471;28;20022;-50